createdAt,value
2023-04-02T00:00:17.203Z,985.29
2023-04-02T00:01:17.176Z,985.33
2023-04-02T00:02:17.197Z,985.33
2023-04-02T00:03:17.232Z,985.43
2023-04-02T00:04:17.195Z,985.32
2023-04-02T00:05:17.124Z,985.43
2023-04-02T00:06:17.102Z,985.44
2023-04-02T00:07:17.087Z,985.47
2023-04-02T00:08:17.079Z,985.45
2023-04-02T00:09:17.096Z,985.45
2023-04-02T00:10:17.059Z,985.49
2023-04-02T00:11:17.039Z,985.53
2023-04-02T00:12:17.033Z,985.49
2023-04-02T00:13:17.788Z,985.52
2023-04-02T00:14:17.016Z,985.59
2023-04-02T00:15:17.080Z,985.59
2023-04-02T00:16:17.023Z,985.65
2023-04-02T00:17:16.981Z,985.58
2023-04-02T00:18:17.798Z,985.63
2023-04-02T00:19:17.124Z,985.63
2023-04-02T00:20:16.935Z,985.56
2023-04-02T00:21:17.514Z,985.69
2023-04-02T00:22:16.900Z,985.75
2023-04-02T00:23:16.878Z,985.75
2023-04-02T00:24:16.897Z,985.70
2023-04-02T00:25:16.907Z,985.76
2023-04-02T00:26:16.841Z,985.78
2023-04-02T00:27:16.852Z,985.78
2023-04-02T00:28:16.823Z,985.82
2023-04-02T00:29:16.845Z,985.82
2023-04-02T00:30:16.816Z,985.83
2023-04-02T00:31:16.782Z,985.83
2023-04-02T00:32:16.810Z,985.85
2023-04-02T00:33:16.757Z,985.91
2023-04-02T00:34:16.775Z,985.92
2023-04-02T00:35:16.729Z,985.87
2023-04-02T00:36:21.043Z,985.96
2023-04-02T00:37:16.697Z,985.95
2023-04-02T00:38:16.695Z,986.01
2023-04-02T00:39:16.699Z,985.97
2023-04-02T00:40:16.689Z,985.99
2023-04-02T00:41:16.657Z,985.95
2023-04-02T00:42:16.641Z,985.97
2023-04-02T00:43:16.661Z,986.03
2023-04-02T00:44:16.649Z,986.10
2023-04-02T00:45:16.617Z,986.08
2023-04-02T00:46:16.643Z,986.05
2023-04-02T00:47:16.602Z,986.04
2023-04-02T00:48:16.570Z,986.08
2023-04-02T00:49:16.587Z,986.13
2023-04-02T00:50:16.549Z,986.10
2023-04-02T00:51:16.527Z,986.16
2023-04-02T00:52:16.522Z,986.15
2023-04-02T00:53:16.498Z,986.14
2023-04-02T00:54:16.571Z,986.22
2023-04-02T00:55:16.477Z,986.21
2023-04-02T00:56:16.499Z,986.26
2023-04-02T00:57:16.520Z,986.28
2023-04-02T00:58:16.482Z,986.27
2023-04-02T00:59:16.440Z,986.32
2023-04-02T01:00:16.420Z,986.33
2023-04-02T01:01:16.489Z,986.30
2023-04-02T01:02:16.419Z,986.32
2023-04-02T01:03:16.565Z,986.32
2023-04-02T01:04:16.394Z,986.38
2023-04-02T01:05:16.341Z,986.36
2023-04-02T01:06:16.343Z,986.38
2023-04-02T01:07:16.346Z,986.37
2023-04-02T01:08:16.309Z,986.38
2023-04-02T01:09:16.326Z,986.46
2023-04-02T01:10:16.292Z,986.48
2023-04-02T01:11:16.271Z,986.44
2023-04-02T01:12:16.258Z,986.50
2023-04-02T01:13:16.240Z,986.50
2023-04-02T01:14:16.237Z,986.53
2023-04-02T01:15:16.272Z,986.58
2023-04-02T01:16:16.249Z,986.53
2023-04-02T01:17:16.221Z,986.57
2023-04-02T01:18:16.174Z,986.55
2023-04-02T01:19:16.162Z,986.59
2023-04-02T01:20:16.169Z,986.62
2023-04-02T01:21:16.145Z,986.66
2023-04-02T01:22:16.138Z,986.66
2023-04-02T01:23:16.119Z,986.72
2023-04-02T01:24:16.103Z,986.73
2023-04-02T01:25:16.115Z,986.74
2023-04-02T01:26:16.070Z,986.72
2023-04-02T01:27:16.073Z,986.79
2023-04-02T01:28:16.042Z,986.73
2023-04-02T01:29:16.034Z,986.79
2023-04-02T01:30:16.804Z,986.77
2023-04-02T01:31:16.039Z,986.83
2023-04-02T01:32:15.994Z,986.82
2023-04-02T01:33:16.767Z,986.84
2023-04-02T01:34:15.968Z,986.85
2023-04-02T01:35:16.000Z,986.87
2023-04-02T01:36:15.953Z,986.92
2023-04-02T01:37:15.936Z,986.94
2023-04-02T01:38:15.914Z,986.98
2023-04-02T01:39:15.979Z,986.97
2023-04-02T01:40:15.918Z,986.98
2023-04-02T01:41:15.897Z,986.99
2023-04-02T01:42:15.892Z,987.07
2023-04-02T01:43:15.860Z,987.05
2023-04-02T01:44:15.845Z,987.07
2023-04-02T01:45:15.878Z,987.11
2023-04-02T01:46:15.837Z,987.11
2023-04-02T01:47:15.849Z,987.15
2023-04-02T01:48:15.783Z,987.21
2023-04-02T01:49:15.799Z,987.23
2023-04-02T01:50:15.787Z,987.25
2023-04-02T01:51:15.754Z,987.29
2023-04-02T01:52:15.735Z,987.30
2023-04-02T01:53:15.722Z,987.30
2023-04-02T01:54:15.721Z,987.42
2023-04-02T01:55:15.744Z,987.35
2023-04-02T01:56:15.692Z,987.31
2023-04-02T01:57:15.692Z,987.38
2023-04-02T01:58:15.659Z,987.39
2023-04-02T01:59:15.665Z,987.46
2023-04-02T02:00:15.678Z,987.44
2023-04-02T02:01:15.664Z,987.46
2023-04-02T02:02:15.655Z,987.45
2023-04-02T02:03:15.657Z,987.50
2023-04-02T02:04:15.586Z,987.52
2023-04-02T02:05:15.612Z,987.52
2023-04-02T02:06:15.559Z,987.50
2023-04-02T02:07:15.548Z,987.55
2023-04-02T02:08:15.531Z,987.59
2023-04-02T02:09:15.523Z,987.63
2023-04-02T02:10:15.533Z,987.66
2023-04-02T02:11:15.494Z,987.64
2023-04-02T02:12:15.479Z,987.64
2023-04-02T02:13:15.482Z,987.71
2023-04-02T02:14:15.495Z,987.68
2023-04-02T02:15:15.473Z,987.72
2023-04-02T02:16:15.457Z,987.77
2023-04-02T02:17:15.424Z,987.74
2023-04-02T02:18:15.404Z,987.80
2023-04-02T02:19:15.405Z,987.76
2023-04-02T02:20:15.436Z,987.83
2023-04-02T02:21:15.369Z,987.84
2023-04-02T02:22:15.352Z,987.88
2023-04-02T02:23:15.351Z,987.88
2023-04-02T02:24:15.343Z,987.90
2023-04-02T02:25:15.346Z,987.94
2023-04-02T02:26:15.303Z,987.96
2023-04-02T02:27:15.314Z,987.98
2023-04-02T02:28:15.281Z,987.98
2023-04-02T02:29:15.280Z,987.97
2023-04-02T02:30:15.294Z,988.01
2023-04-02T02:31:15.235Z,988.03
2023-04-02T02:32:15.250Z,988.07
2023-04-02T02:33:15.221Z,988.05
2023-04-02T02:34:15.200Z,988.12
2023-04-02T02:35:15.229Z,988.11
2023-04-02T02:36:15.291Z,988.18
2023-04-02T02:37:15.168Z,988.19
2023-04-02T02:38:15.156Z,988.14
2023-04-02T02:39:15.140Z,988.18
2023-04-02T02:40:15.157Z,988.18
2023-04-02T02:41:15.109Z,988.23
2023-04-02T02:42:15.102Z,988.31
2023-04-02T02:43:15.094Z,988.27
2023-04-02T02:44:15.078Z,988.28
2023-04-02T02:45:15.103Z,988.36
2023-04-02T02:46:15.089Z,988.36
2023-04-02T02:47:15.038Z,988.41
2023-04-02T02:48:15.020Z,988.39
2023-04-02T02:49:15.018Z,988.43
2023-04-02T02:50:15.033Z,988.40
2023-04-02T02:51:15.658Z,988.41
2023-04-02T02:52:14.983Z,988.49
2023-04-02T02:53:14.970Z,988.55
2023-04-02T02:54:15.000Z,988.56
2023-04-02T02:55:14.957Z,988.48
2023-04-02T02:56:14.918Z,988.53
2023-04-02T02:57:14.943Z,988.62
2023-04-02T02:58:14.886Z,988.57
2023-04-02T02:59:14.888Z,988.64
2023-04-02T03:00:14.886Z,988.69
2023-04-02T03:01:14.904Z,988.70
2023-04-02T03:02:14.868Z,988.69
2023-04-02T03:03:15.047Z,988.69
2023-04-02T03:04:14.889Z,988.73
2023-04-02T03:05:14.822Z,988.71
2023-04-02T03:06:14.782Z,988.73
2023-04-02T03:07:14.781Z,988.73
2023-04-02T03:08:14.762Z,988.75
2023-04-02T03:09:14.764Z,988.77
2023-04-02T03:10:14.776Z,988.75
2023-04-02T03:11:14.721Z,988.75
2023-04-02T03:12:14.710Z,988.79
2023-04-02T03:13:14.784Z,988.81
2023-04-02T03:14:14.683Z,988.78
2023-04-02T03:15:14.702Z,988.76
2023-04-02T03:16:14.726Z,988.88
2023-04-02T03:17:14.650Z,988.89
2023-04-02T03:18:14.644Z,988.88
2023-04-02T03:19:14.630Z,988.97
2023-04-02T03:20:14.648Z,989.01
2023-04-02T03:21:14.597Z,988.98
2023-04-02T03:22:14.580Z,988.96
2023-04-02T03:23:14.571Z,989.04
2023-04-02T03:24:14.584Z,988.99
2023-04-02T03:25:14.588Z,989.06
2023-04-02T03:26:14.621Z,989.05
2023-04-02T03:27:14.520Z,989.06
2023-04-02T03:28:14.586Z,989.05
2023-04-02T03:29:14.654Z,989.08
2023-04-02T03:30:14.526Z,989.09
2023-04-02T03:31:14.526Z,989.12
2023-04-02T03:32:14.453Z,989.10
2023-04-02T03:33:14.578Z,989.16
2023-04-02T03:34:14.447Z,989.18
2023-04-02T03:35:14.445Z,989.21
2023-04-02T03:36:14.436Z,989.22
2023-04-02T03:37:14.570Z,989.28
2023-04-02T03:38:14.388Z,989.26
2023-04-02T03:39:14.484Z,989.28
2023-04-02T03:40:14.521Z,989.30
2023-04-02T03:41:14.433Z,989.30
2023-04-02T03:42:14.340Z,989.35
2023-04-02T03:43:14.324Z,989.32
2023-04-02T03:44:14.416Z,989.39
2023-04-02T03:45:14.501Z,989.39
2023-04-02T03:46:14.368Z,989.45
2023-04-02T03:47:14.378Z,989.47
2023-04-02T03:48:14.281Z,989.47
2023-04-02T03:49:14.233Z,989.54
2023-04-02T03:50:14.259Z,989.53
2023-04-02T03:51:14.241Z,989.63
2023-04-02T03:52:14.217Z,989.61
2023-04-02T03:53:14.197Z,989.63
2023-04-02T03:54:14.184Z,989.65
2023-04-02T03:55:14.422Z,989.69
2023-04-02T03:56:14.352Z,989.68
2023-04-02T03:57:14.285Z,989.70
2023-04-02T03:58:14.224Z,989.73
2023-04-02T03:59:14.355Z,989.72
2023-04-02T04:00:14.137Z,989.76
2023-04-02T04:01:14.085Z,989.80
2023-04-02T04:02:14.119Z,989.83
2023-04-02T04:03:14.123Z,989.84
2023-04-02T04:04:14.119Z,989.86
2023-04-02T04:05:14.061Z,989.86
2023-04-02T04:06:14.038Z,989.89
2023-04-02T04:07:14.018Z,989.95
2023-04-02T04:08:14.006Z,989.92
2023-04-02T04:09:13.986Z,989.99
2023-04-02T04:10:14.022Z,990.03
2023-04-02T04:11:14.008Z,990.02
2023-04-02T04:12:13.960Z,990.06
2023-04-02T04:13:13.950Z,990.07
2023-04-02T04:14:13.955Z,990.05
2023-04-02T04:15:13.949Z,990.09
2023-04-02T04:16:13.920Z,990.10
2023-04-02T04:17:13.961Z,990.17
2023-04-02T04:18:13.885Z,990.18
2023-04-02T04:19:13.853Z,990.17
2023-04-02T04:20:13.893Z,990.17
2023-04-02T04:21:13.832Z,990.20
2023-04-02T04:22:13.822Z,990.28
2023-04-02T04:23:13.815Z,990.28
2023-04-02T04:24:13.815Z,990.31
2023-04-02T04:25:13.822Z,990.31
2023-04-02T04:26:13.794Z,990.30
2023-04-02T04:27:13.785Z,990.33
2023-04-02T04:28:13.755Z,990.37
2023-04-02T04:29:13.742Z,990.36
2023-04-02T04:30:13.720Z,990.44
2023-04-02T04:31:13.680Z,990.46
2023-04-02T04:32:13.772Z,990.43
2023-04-02T04:33:13.688Z,990.47
2023-04-02T04:34:13.682Z,990.50
2023-04-02T04:35:13.612Z,990.52
2023-04-02T04:36:13.652Z,990.56
2023-04-02T04:37:13.633Z,990.54
2023-04-02T04:38:13.628Z,990.60
2023-04-02T04:39:13.602Z,990.59
2023-04-02T04:40:13.607Z,990.65
2023-04-02T04:41:13.579Z,990.67
2023-04-02T04:42:13.579Z,990.65
2023-04-02T04:43:13.513Z,990.69
2023-04-02T04:44:13.514Z,990.73
2023-04-02T04:45:13.479Z,990.78
2023-04-02T04:46:13.627Z,990.79
2023-04-02T04:47:13.463Z,990.79
2023-04-02T04:48:13.468Z,990.88
2023-04-02T04:49:13.444Z,990.86
2023-04-02T04:50:13.433Z,990.91
2023-04-02T04:51:13.425Z,990.87
2023-04-02T04:52:13.392Z,990.94
2023-04-02T04:53:13.385Z,990.97
2023-04-02T04:54:13.390Z,991.00
2023-04-02T04:55:15.452Z,991.02
2023-04-02T04:56:19.359Z,991.03
2023-04-02T04:57:14.452Z,991.06
2023-04-02T04:58:13.312Z,991.08
2023-04-02T04:59:13.309Z,991.14
2023-04-02T05:00:13.301Z,991.10
2023-04-02T05:01:13.334Z,991.17
2023-04-02T05:02:13.274Z,991.25
2023-04-02T05:03:13.256Z,991.19
2023-04-02T05:04:13.271Z,991.22
2023-04-02T05:05:13.232Z,991.28
2023-04-02T05:06:13.254Z,991.16
2023-04-02T05:07:13.214Z,991.27
2023-04-02T05:08:13.190Z,991.32
2023-04-02T05:09:13.178Z,991.27
2023-04-02T05:10:13.236Z,991.35
2023-04-02T05:11:13.186Z,991.36
2023-04-02T05:12:13.137Z,991.43
2023-04-02T05:13:13.115Z,991.41
2023-04-02T05:14:13.116Z,991.49
2023-04-02T05:15:13.106Z,991.52
2023-04-02T05:16:13.549Z,991.48
2023-04-02T05:17:13.092Z,991.55
2023-04-02T05:18:13.053Z,991.52
2023-04-02T05:19:13.044Z,991.57
2023-04-02T05:20:13.036Z,991.60
2023-04-02T05:21:13.062Z,991.61
2023-04-02T05:22:13.022Z,991.66
2023-04-02T05:23:13.074Z,991.67
2023-04-02T05:24:12.986Z,991.68
2023-04-02T05:25:12.981Z,991.79
2023-04-02T05:26:13.081Z,991.73
2023-04-02T05:27:12.957Z,991.78
2023-04-02T05:28:12.939Z,991.80
2023-04-02T05:29:12.948Z,991.81
2023-04-02T05:30:12.926Z,991.84
2023-04-02T05:31:12.929Z,991.95
2023-04-02T05:32:12.986Z,991.92
2023-04-02T05:33:12.861Z,991.96
2023-04-02T05:34:12.851Z,991.97
2023-04-02T05:35:12.926Z,991.92
2023-04-02T05:36:12.880Z,992.02
2023-04-02T05:37:12.812Z,992.06
2023-04-02T05:38:12.819Z,992.07
2023-04-02T05:39:12.793Z,992.15
2023-04-02T05:40:12.787Z,992.03
2023-04-02T05:41:12.819Z,992.14
2023-04-02T05:42:12.776Z,992.11
2023-04-02T05:43:12.757Z,992.18
2023-04-02T05:44:12.743Z,992.17
2023-04-02T05:45:12.729Z,992.15
2023-04-02T05:46:12.770Z,992.19
2023-04-02T05:47:12.695Z,992.15
2023-04-02T05:48:12.682Z,992.26
2023-04-02T05:49:12.684Z,992.25
2023-04-02T05:50:12.657Z,992.28
2023-04-02T05:51:12.675Z,992.29
2023-04-02T05:52:12.657Z,992.26
2023-04-02T05:53:12.653Z,992.30
2023-04-02T05:54:12.623Z,992.32
2023-04-02T05:55:12.607Z,992.29
2023-04-02T05:56:12.643Z,992.32
2023-04-02T05:57:12.595Z,992.33
2023-04-02T05:59:12.533Z,992.36
2023-04-02T06:00:12.544Z,992.40
2023-04-02T06:01:12.836Z,992.43
2023-04-02T06:02:12.590Z,992.37
2023-04-02T06:03:12.550Z,992.46
2023-04-02T06:04:12.554Z,992.48
2023-04-02T06:05:12.480Z,992.49
2023-04-02T06:06:14.222Z,992.49
2023-04-02T06:07:12.457Z,992.49
2023-04-02T06:08:12.419Z,992.57
2023-04-02T06:09:12.420Z,992.59
2023-04-02T06:10:12.406Z,992.65
2023-04-02T06:11:12.388Z,992.67
2023-04-02T06:12:12.435Z,992.64
2023-04-02T06:13:12.370Z,992.70
2023-04-02T06:14:12.368Z,992.72
2023-04-02T06:15:12.351Z,992.77
2023-04-02T06:16:12.406Z,992.77
2023-04-02T06:17:12.305Z,992.81
2023-04-02T06:18:12.309Z,992.84
2023-04-02T06:19:12.285Z,992.88
2023-04-02T06:20:12.278Z,992.89
2023-04-02T06:21:12.287Z,992.93
2023-04-02T06:22:12.249Z,992.95
2023-04-02T06:23:12.254Z,992.96
2023-04-02T06:24:12.299Z,992.97
2023-04-02T06:25:12.204Z,992.92
2023-04-02T06:26:12.243Z,993.05
2023-04-02T06:27:12.190Z,992.99
2023-04-02T06:28:12.193Z,993.06
2023-04-02T06:29:12.187Z,993.06
2023-04-02T06:30:12.157Z,993.04
2023-04-02T06:31:12.232Z,993.09
2023-04-02T06:32:12.144Z,993.09
2023-04-02T06:33:12.161Z,993.15
2023-04-02T06:34:12.241Z,993.11
2023-04-02T06:35:12.093Z,993.19
2023-04-02T06:36:12.155Z,993.18
2023-04-02T06:37:12.074Z,993.19
2023-04-02T06:38:12.059Z,993.20
2023-04-02T06:39:12.030Z,993.23
2023-04-02T06:40:12.042Z,993.26
2023-04-02T06:41:12.041Z,993.26
2023-04-02T06:42:12.006Z,993.27
2023-04-02T06:43:11.988Z,993.28
2023-04-02T06:44:11.980Z,993.32
2023-04-02T06:45:11.968Z,993.28
2023-04-02T06:46:12.045Z,993.33
2023-04-02T06:47:11.944Z,993.34
2023-04-02T06:48:11.991Z,993.37
2023-04-02T06:49:11.928Z,993.37
2023-04-02T06:50:11.931Z,993.46
2023-04-02T06:51:11.938Z,993.40
2023-04-02T06:52:11.879Z,993.39
2023-04-02T06:53:11.856Z,993.47
2023-04-02T06:54:11.850Z,993.55
2023-04-02T06:55:11.864Z,993.51
2023-04-02T06:56:11.860Z,993.58
2023-04-02T06:57:11.896Z,993.57
2023-04-02T06:58:11.801Z,993.60
2023-04-02T06:59:11.776Z,993.65
2023-04-02T07:00:11.891Z,993.68
2023-04-02T07:01:11.822Z,993.66
2023-04-02T07:02:15.972Z,993.74
2023-04-02T07:03:11.770Z,993.68
2023-04-02T07:04:11.748Z,993.76
2023-04-02T07:05:11.874Z,993.80
2023-04-02T07:06:11.738Z,993.82
2023-04-02T07:07:11.700Z,993.80
2023-04-02T07:08:11.673Z,993.88
2023-04-02T07:09:11.654Z,993.82
2023-04-02T07:10:11.666Z,993.85
2023-04-02T07:11:11.633Z,993.82
2023-04-02T07:12:11.704Z,993.90
2023-04-02T07:13:11.655Z,993.90
2023-04-02T07:14:11.598Z,993.95
2023-04-02T07:15:11.568Z,993.96
2023-04-02T07:16:11.582Z,993.92
2023-04-02T07:17:11.590Z,993.96
2023-04-02T07:18:11.597Z,993.98
2023-04-02T07:19:11.522Z,994.02
2023-04-02T07:20:11.757Z,994.05
2023-04-02T07:21:11.498Z,994.04
2023-04-02T07:22:11.517Z,994.06
2023-04-02T07:23:11.685Z,994.08
2023-04-02T07:24:11.470Z,994.15
2023-04-02T07:25:11.556Z,994.16
2023-04-02T07:26:11.591Z,994.22
2023-04-02T07:27:11.537Z,994.20
2023-04-02T07:28:11.428Z,994.25
2023-04-02T07:29:11.392Z,994.32
2023-04-02T07:30:11.393Z,994.33
2023-04-02T07:31:11.401Z,994.38
2023-04-02T07:32:11.743Z,994.33
2023-04-02T07:33:11.484Z,994.37
2023-04-02T07:34:11.431Z,994.38
2023-04-02T07:35:11.334Z,994.42
2023-04-02T07:36:11.330Z,994.41
2023-04-02T07:37:11.473Z,994.35
2023-04-02T07:38:11.432Z,994.44
2023-04-02T07:39:11.273Z,994.41
2023-04-02T07:40:11.330Z,994.48
2023-04-02T07:41:11.523Z,994.43
2023-04-02T07:42:12.024Z,994.46
2023-04-02T07:43:11.427Z,994.46
2023-04-02T07:44:11.372Z,994.53
2023-04-02T07:45:11.356Z,994.54
2023-04-02T07:46:11.218Z,994.55
2023-04-02T07:47:11.210Z,994.63
2023-04-02T07:48:15.398Z,994.61
2023-04-02T07:49:11.173Z,994.63
2023-04-02T07:50:11.251Z,994.68
2023-04-02T07:51:11.147Z,994.62
2023-04-02T07:52:11.309Z,994.66
2023-04-02T07:53:11.142Z,994.68
2023-04-02T07:54:11.221Z,994.71
2023-04-02T07:55:11.244Z,994.72
2023-04-02T07:56:12.484Z,994.74
2023-04-02T07:57:11.145Z,994.78
2023-04-02T07:58:11.254Z,994.80
2023-04-02T07:59:11.865Z,994.79
2023-04-02T08:00:11.010Z,994.84
2023-04-02T08:01:11.015Z,994.82
2023-04-02T08:02:11.440Z,994.89
2023-04-02T08:03:11.693Z,994.93
2023-04-02T08:04:10.987Z,994.92
2023-04-02T08:05:11.698Z,994.94
2023-04-02T08:06:11.044Z,994.94
2023-04-02T08:07:12.855Z,994.96
2023-04-02T08:08:11.051Z,995.01
2023-04-02T08:09:10.906Z,995.08
2023-04-02T08:10:10.921Z,995.06
2023-04-02T08:11:10.870Z,995.06
2023-04-02T08:12:10.888Z,995.06
2023-04-02T08:13:10.849Z,995.13
2023-04-02T08:14:10.829Z,995.08
2023-04-02T08:15:10.859Z,995.11
2023-04-02T08:16:10.858Z,995.12
2023-04-02T08:17:10.858Z,995.17
2023-04-02T08:18:10.842Z,995.17
2023-04-02T08:19:10.771Z,995.13
2023-04-02T08:20:10.751Z,995.16
2023-04-02T08:21:10.760Z,995.20
2023-04-02T08:22:10.787Z,995.19
2023-04-02T08:23:10.718Z,995.22
2023-04-02T08:24:10.721Z,995.23
2023-04-02T08:25:10.766Z,995.25
2023-04-02T08:26:10.686Z,995.28
2023-04-02T08:27:10.702Z,995.31
2023-04-02T08:28:10.678Z,995.37
2023-04-02T08:29:10.642Z,995.34
2023-04-02T08:30:10.662Z,995.32
2023-04-02T08:31:10.707Z,995.35
2023-04-02T08:32:10.642Z,995.41
2023-04-02T08:33:10.643Z,995.41
2023-04-02T08:34:10.583Z,995.35
2023-04-02T08:35:10.574Z,995.37
2023-04-02T08:36:10.565Z,995.45
2023-04-02T08:37:10.568Z,995.45
2023-04-02T08:38:10.521Z,995.40
2023-04-02T08:39:10.600Z,995.49
2023-04-02T08:40:10.513Z,995.48
2023-04-02T08:41:10.501Z,995.52
2023-04-02T08:42:10.502Z,995.46
2023-04-02T08:43:10.472Z,995.53
2023-04-02T08:44:10.462Z,995.53
2023-04-02T08:45:23.623Z,995.52
2023-04-02T08:46:11.509Z,995.54
2023-04-02T08:47:10.457Z,995.64
2023-04-02T08:48:10.597Z,995.66
2023-04-02T08:49:10.570Z,995.67
2023-04-02T08:50:10.451Z,995.70
2023-04-02T08:51:10.377Z,995.66
2023-04-02T08:52:10.379Z,995.75
2023-04-02T08:53:10.335Z,995.79
2023-04-02T08:54:10.317Z,995.77
2023-04-02T08:55:10.307Z,995.86
2023-04-02T08:56:10.294Z,995.83
2023-04-02T08:57:10.389Z,995.86
2023-04-02T08:58:10.263Z,995.86
2023-04-02T08:59:10.281Z,995.93
2023-04-02T09:00:10.268Z,996.00
2023-04-02T09:01:10.259Z,995.93
2023-04-02T09:02:10.247Z,995.97
2023-04-02T09:03:10.349Z,995.94
2023-04-02T09:04:10.204Z,996.01
2023-04-02T09:05:10.197Z,995.99
2023-04-02T09:06:10.296Z,996.06
2023-04-02T09:07:10.609Z,996.09
2023-04-02T09:08:10.179Z,995.99
2023-04-02T09:09:10.308Z,996.03
2023-04-02T09:10:10.130Z,996.00
2023-04-02T09:11:10.120Z,996.11
2023-04-02T09:12:10.192Z,996.02
2023-04-02T09:13:10.146Z,996.05
2023-04-02T09:14:10.084Z,996.07
2023-04-02T09:15:10.055Z,996.14
2023-04-02T09:16:10.073Z,996.08
2023-04-02T09:17:10.291Z,996.05
2023-04-02T09:18:10.101Z,996.12
2023-04-02T09:19:10.015Z,996.11
2023-04-02T09:20:10.033Z,996.09
2023-04-02T09:21:09.981Z,996.23
2023-04-02T09:22:10.011Z,996.18
2023-04-02T09:23:09.996Z,996.19
2023-04-02T09:24:09.943Z,996.24
2023-04-02T09:25:10.083Z,996.27
2023-04-02T09:26:09.924Z,996.32
2023-04-02T09:27:09.964Z,996.30
2023-04-02T09:28:09.917Z,996.27
2023-04-02T09:29:09.926Z,996.32
2023-04-02T09:30:09.865Z,996.35
2023-04-02T09:31:09.882Z,996.28
2023-04-02T09:32:09.880Z,996.32
2023-04-02T09:33:10.027Z,996.31
2023-04-02T09:34:09.822Z,996.33
2023-04-02T09:35:22.462Z,996.36
2023-04-02T09:36:10.870Z,996.38
2023-04-02T09:37:09.885Z,996.42
2023-04-02T09:38:09.782Z,996.46
2023-04-02T09:39:09.778Z,996.44
2023-04-02T09:40:09.746Z,996.43
2023-04-02T09:41:09.722Z,996.46
2023-04-02T09:42:09.729Z,996.55
2023-04-02T09:43:09.711Z,996.53
2023-04-02T09:44:09.859Z,996.50
2023-04-02T09:45:10.203Z,996.54
2023-04-02T09:46:09.681Z,996.58
2023-04-02T09:47:09.687Z,996.57
2023-04-02T09:48:09.658Z,996.57
2023-04-02T09:49:09.633Z,996.59
2023-04-02T09:50:09.606Z,996.63
2023-04-02T09:51:09.618Z,996.60
2023-04-02T09:52:09.607Z,996.67
2023-04-02T09:53:09.575Z,996.66
2023-04-02T09:54:09.578Z,996.64
2023-04-02T09:55:09.580Z,996.66
2023-04-02T09:56:09.555Z,996.65
2023-04-02T09:57:09.701Z,996.69
2023-04-02T09:58:09.643Z,996.70
2023-04-02T09:59:09.614Z,996.77
2023-04-02T10:00:14.658Z,996.78
2023-04-02T10:01:10.878Z,996.77
2023-04-02T10:02:09.774Z,996.79
2023-04-02T10:03:09.443Z,996.88
2023-04-02T10:04:09.475Z,996.83
2023-04-02T10:05:11.709Z,996.84
2023-04-02T10:06:09.501Z,996.89
2023-04-02T10:07:09.676Z,996.80
2023-04-02T10:08:09.580Z,996.82
2023-04-02T10:09:09.499Z,996.94
2023-04-02T10:10:09.423Z,996.90
2023-04-02T10:11:09.492Z,996.89
2023-04-02T10:12:09.315Z,996.89
2023-04-02T10:13:09.937Z,996.93
2023-04-02T10:14:09.346Z,996.89
2023-04-02T10:15:09.476Z,996.94
2023-04-02T10:16:09.426Z,996.96
2023-04-02T10:17:10.241Z,997.01
2023-04-02T10:18:09.545Z,997.05
2023-04-02T10:19:09.327Z,997.12
2023-04-02T10:20:09.217Z,997.08
2023-04-02T10:21:09.745Z,997.10
2023-04-02T10:22:09.284Z,997.03
2023-04-02T10:23:09.218Z,997.13
2023-04-02T10:24:09.453Z,997.11
2023-04-02T10:25:09.159Z,997.13
2023-04-02T10:26:09.272Z,997.20
2023-04-02T10:27:09.244Z,997.13
2023-04-02T10:28:09.148Z,997.13
2023-04-02T10:29:09.246Z,997.28
2023-04-02T10:30:09.248Z,997.25
2023-04-02T10:31:10.080Z,997.31
2023-04-02T10:32:09.094Z,997.34
2023-04-02T10:33:09.488Z,997.35
2023-04-02T10:34:09.084Z,997.32
2023-04-02T10:35:09.090Z,997.29
2023-04-02T10:36:10.979Z,997.32
2023-04-02T10:37:09.207Z,997.29
2023-04-02T10:38:09.032Z,997.31
2023-04-02T10:39:10.672Z,997.26
2023-04-02T10:40:09.096Z,997.26
2023-04-02T10:41:08.990Z,997.25
2023-04-02T10:42:09.647Z,997.21
2023-04-02T10:43:09.127Z,997.31
2023-04-02T10:44:19.677Z,997.30
2023-04-02T10:45:10.075Z,997.31
2023-04-02T10:46:09.064Z,997.31
2023-04-02T10:47:09.012Z,997.36
2023-04-02T10:48:09.124Z,997.34
2023-04-02T10:49:09.149Z,997.42
2023-04-02T10:50:08.842Z,997.44
2023-04-02T10:51:08.873Z,997.42
2023-04-02T10:52:08.815Z,997.40
2023-04-02T10:53:09.006Z,997.47
2023-04-02T10:54:08.944Z,997.43
2023-04-02T10:55:08.783Z,997.46
2023-04-02T10:56:08.762Z,997.43
2023-04-02T10:57:08.793Z,997.43
2023-04-02T10:58:08.854Z,997.56
2023-04-02T10:59:08.758Z,997.52
2023-04-02T11:00:08.771Z,997.53
2023-04-02T11:01:08.745Z,997.60
2023-04-02T11:02:08.690Z,997.58
2023-04-02T11:03:09.573Z,997.56
2023-04-02T11:04:08.681Z,997.56
2023-04-02T11:05:08.776Z,997.61
2023-04-02T11:06:09.711Z,997.68
2023-04-02T11:07:14.570Z,997.66
2023-04-02T11:08:09.636Z,997.67
2023-04-02T11:09:09.225Z,997.60
2023-04-02T11:10:10.900Z,997.68
2023-04-02T11:11:08.817Z,997.62
2023-04-02T11:12:08.716Z,997.60
2023-04-02T11:13:08.612Z,997.66
2023-04-02T11:14:08.545Z,997.72
2023-04-02T11:15:08.524Z,997.68
2023-04-02T11:16:08.579Z,997.69
2023-04-02T11:17:08.489Z,997.64
2023-04-02T11:18:08.512Z,997.68
2023-04-02T11:19:08.481Z,997.73
2023-04-02T11:20:08.446Z,997.65
2023-04-02T11:21:08.432Z,997.68
2023-04-02T11:22:08.515Z,997.70
2023-04-02T11:23:08.476Z,997.76
2023-04-02T11:24:08.388Z,997.76
2023-04-02T11:25:08.384Z,997.76
2023-04-02T11:26:08.359Z,997.82
2023-04-02T11:27:08.361Z,997.78
2023-04-02T11:28:08.429Z,997.82
2023-04-02T11:29:08.344Z,997.83
2023-04-02T11:30:08.340Z,997.81
2023-04-02T11:31:08.350Z,997.85
2023-04-02T11:32:08.292Z,997.82
2023-04-02T11:33:08.372Z,997.86
2023-04-02T11:34:08.259Z,997.92
2023-04-02T11:35:08.253Z,997.89
2023-04-02T11:36:08.301Z,997.91
2023-04-02T11:37:08.255Z,997.90
2023-04-02T11:38:08.275Z,997.97
2023-04-02T11:39:17.050Z,997.99
2023-04-02T11:40:09.199Z,997.97
2023-04-02T11:41:08.192Z,997.95
2023-04-02T11:42:08.159Z,998.03
2023-04-02T11:43:08.187Z,998.06
2023-04-02T11:44:08.139Z,997.95
2023-04-02T11:45:08.129Z,998.00
2023-04-02T11:46:08.142Z,998.02
2023-04-02T11:47:08.105Z,998.06
2023-04-02T11:48:08.257Z,997.98
2023-04-02T11:49:08.112Z,998.05
2023-04-02T11:50:08.077Z,998.04
2023-04-02T11:51:08.045Z,998.08
2023-04-02T11:52:12.454Z,998.04
2023-04-02T11:53:08.073Z,998.09
2023-04-02T11:54:08.035Z,998.11
2023-04-02T11:55:08.019Z,998.15
2023-04-02T11:56:07.982Z,998.15
2023-04-02T11:57:08.015Z,998.15
2023-04-02T11:58:08.009Z,998.12
2023-04-02T11:59:07.959Z,998.20
2023-04-02T12:00:07.946Z,998.15
2023-04-02T12:01:07.998Z,998.21
2023-04-02T12:02:07.955Z,998.20
2023-04-02T12:03:07.985Z,998.27
2023-04-02T12:04:07.896Z,998.23
2023-04-02T12:05:07.920Z,998.26
2023-04-02T12:06:07.866Z,998.29
2023-04-02T12:07:07.831Z,998.25
2023-04-02T12:08:07.956Z,998.26
2023-04-02T12:09:08.713Z,998.28
2023-04-02T12:10:07.802Z,998.27
2023-04-02T12:11:07.830Z,998.33
2023-04-02T12:12:07.775Z,998.35
2023-04-02T12:13:07.790Z,998.35
2023-04-02T12:14:07.759Z,998.31
2023-04-02T12:15:07.763Z,998.34
2023-04-02T12:16:07.737Z,998.35
2023-04-02T12:17:09.833Z,998.32
2023-04-02T12:18:07.759Z,998.37
2023-04-02T12:19:07.693Z,998.27
2023-04-02T12:20:07.695Z,998.29
2023-04-02T12:21:07.650Z,998.31
2023-04-02T12:22:07.661Z,998.30
2023-04-02T12:23:07.680Z,998.31
2023-04-02T12:24:07.625Z,998.35
2023-04-02T12:25:07.747Z,998.42
2023-04-02T12:26:07.679Z,998.46
2023-04-02T12:27:07.595Z,998.35
2023-04-02T12:28:07.601Z,998.41
2023-04-02T12:29:07.550Z,998.46